createdAt,value
2023-04-23T00:00:13.855Z,34.87
2023-04-23T00:02:47.261Z,36.80
2023-04-23T00:05:18.175Z,35.90
2023-04-23T00:07:47.063Z,42.63
2023-04-23T00:10:16.062Z,32.70
2023-04-23T00:12:45.161Z,35.63
2023-04-23T00:15:15.342Z,36.10
2023-04-23T00:17:43.970Z,31.27
2023-04-23T00:20:13.433Z,31.53
2023-04-23T00:22:43.772Z,31.00
2023-04-23T00:25:12.404Z,31.33
2023-04-23T00:27:40.884Z,36.50
2023-04-23T00:30:10.503Z,34.43
2023-04-23T00:32:39.196Z,30.37
2023-04-23T00:35:08.845Z,37.37
2023-04-23T00:37:37.353Z,39.00
2023-04-23T00:40:09.099Z,34.73
2023-04-23T00:42:38.862Z,30.57
2023-04-23T00:45:09.678Z,30.40
2023-04-23T00:47:38.356Z,29.93
2023-04-23T00:50:08.527Z,30.77
2023-04-23T00:52:39.380Z,33.70
2023-04-23T00:55:10.546Z,28.27
2023-04-23T00:57:40.070Z,25.77
2023-04-23T01:00:10.044Z,29.47
2023-04-23T01:02:39.437Z,28.30
2023-04-23T01:05:11.567Z,29.77
2023-04-23T01:07:40.499Z,28.87
2023-04-23T01:10:12.374Z,30.03
2023-04-23T01:12:41.225Z,25.10
2023-04-23T01:15:11.164Z,26.30
2023-04-23T01:17:39.726Z,24.17
2023-04-23T01:20:09.844Z,24.90
2023-04-23T01:22:40.086Z,26.37
2023-04-23T01:25:10.830Z,25.67
2023-04-23T01:27:40.646Z,25.93
2023-04-23T01:30:11.200Z,24.37
2023-04-23T01:32:41.591Z,23.27
2023-04-23T01:35:10.651Z,25.27
2023-04-23T01:37:41.577Z,23.40
2023-04-23T01:40:11.569Z,24.40
2023-04-23T01:42:40.427Z,22.70
2023-04-23T01:45:10.444Z,24.03
2023-04-23T01:47:39.188Z,24.27
2023-04-23T01:50:08.743Z,22.97
2023-04-23T01:52:37.638Z,20.70
2023-04-23T01:55:08.264Z,21.50
2023-04-23T01:57:37.022Z,25.27
2023-04-23T02:00:09.511Z,20.60
2023-04-23T02:02:38.894Z,21.47
2023-04-23T02:05:12.608Z,23.03
2023-04-23T02:07:41.741Z,20.80
2023-04-23T02:10:12.404Z,22.23
2023-04-23T02:12:41.651Z,19.37
2023-04-23T02:15:11.481Z,21.60
2023-04-23T02:17:40.258Z,21.60
2023-04-23T02:20:10.957Z,17.57
2023-04-23T02:22:40.057Z,19.37
2023-04-23T02:25:09.812Z,18.47
2023-04-23T02:27:39.699Z,18.10
2023-04-23T02:30:09.696Z,19.27
2023-04-23T02:32:38.939Z,17.57
2023-04-23T02:35:09.605Z,18.63
2023-04-23T02:37:38.465Z,17.43
2023-04-23T02:40:08.777Z,19.03
2023-04-23T02:42:37.364Z,21.50
2023-04-23T02:45:08.920Z,17.60
2023-04-23T02:47:37.796Z,19.47
2023-04-23T02:50:07.108Z,22.40
2023-04-23T02:52:35.918Z,19.87
2023-04-23T02:55:04.764Z,17.90
2023-04-23T02:57:33.276Z,19.03
2023-04-23T03:00:01.793Z,21.43
2023-04-23T03:02:31.847Z,17.03
2023-04-23T03:05:00.336Z,21.97
2023-04-23T03:07:29.048Z,20.43
2023-04-23T03:09:57.771Z,22.77
2023-04-23T03:12:26.248Z,17.17
2023-04-23T03:14:54.850Z,17.77
2023-04-23T03:17:23.547Z,16.37
2023-04-23T03:19:54.068Z,17.67
2023-04-23T03:22:22.512Z,17.07
2023-04-23T03:24:50.947Z,17.83
2023-04-23T03:27:19.411Z,19.93
2023-04-23T03:29:47.877Z,18.23
2023-04-23T03:32:16.358Z,21.50
2023-04-23T03:34:44.866Z,19.00
2023-04-23T03:37:15.079Z,21.70
2023-04-23T03:39:43.503Z,20.13
2023-04-23T03:42:11.987Z,20.30
2023-04-23T03:44:40.746Z,17.80
2023-04-23T03:47:09.321Z,20.73
2023-04-23T03:49:38.363Z,18.53
2023-04-23T03:52:08.582Z,19.67
2023-04-23T03:54:38.702Z,18.17
2023-04-23T03:57:07.469Z,21.83
2023-04-23T03:59:35.971Z,23.13
2023-04-23T04:02:04.572Z,18.43
2023-04-23T04:04:33.837Z,22.07
2023-04-23T04:07:02.747Z,24.00
2023-04-23T04:09:31.230Z,23.53
2023-04-23T04:12:01.127Z,24.77
2023-04-23T04:14:29.770Z,27.27
2023-04-23T04:16:58.350Z,24.33
2023-04-23T04:19:26.863Z,28.50
2023-04-23T04:21:55.399Z,21.17
2023-04-23T04:24:26.321Z,24.63
2023-04-23T04:26:55.395Z,23.23
2023-04-23T04:29:26.072Z,21.97
2023-04-23T04:31:54.685Z,23.57
2023-04-23T04:34:23.509Z,23.50
2023-04-23T04:36:54.116Z,20.30
2023-04-23T04:39:22.678Z,22.00
2023-04-23T04:41:51.186Z,19.23
2023-04-23T04:44:19.750Z,24.03
2023-04-23T04:46:49.610Z,34.23
2023-04-23T04:49:19.793Z,36.53
2023-04-23T04:51:48.277Z,27.83
2023-04-23T04:54:16.868Z,23.20
2023-04-23T04:56:45.357Z,25.63
2023-04-23T04:59:14.153Z,25.60
2023-04-23T05:01:43.099Z,22.47
2023-04-23T05:04:13.277Z,24.37
2023-04-23T05:06:41.919Z,19.33
2023-04-23T05:09:10.908Z,19.63
2023-04-23T05:11:40.596Z,15.53
2023-04-23T05:14:09.269Z,18.20
2023-04-23T05:16:37.793Z,21.20
2023-04-23T05:19:06.784Z,16.57
2023-04-23T05:21:36.757Z,18.97
2023-04-23T05:24:05.680Z,18.70
2023-04-23T05:26:34.107Z,19.87
2023-04-23T05:29:02.614Z,17.47
2023-04-23T05:31:31.523Z,19.13
2023-04-23T05:34:00.063Z,17.97
2023-04-23T05:36:28.819Z,18.47
2023-04-23T05:38:58.722Z,15.97
2023-04-23T05:41:27.183Z,16.63
2023-04-23T05:43:55.720Z,15.27
2023-04-23T05:46:24.143Z,15.83
2023-04-23T05:48:52.697Z,19.03
2023-04-23T05:51:22.084Z,14.47
2023-04-23T05:53:50.600Z,18.57
2023-04-23T05:56:20.458Z,23.47
2023-04-23T05:58:49.006Z,17.27
2023-04-23T06:01:17.500Z,21.10
2023-04-23T06:03:46.241Z,17.77
2023-04-23T06:06:15.694Z,17.10
2023-04-23T06:08:44.925Z,16.63
2023-04-23T06:11:13.415Z,17.30
2023-04-23T06:13:43.921Z,16.33
2023-04-23T06:16:12.643Z,18.23
2023-04-23T06:18:42.106Z,18.17
2023-04-23T06:21:10.788Z,15.47
2023-04-23T06:23:39.298Z,16.87
2023-04-23T06:26:07.765Z,15.20
2023-04-23T06:28:36.498Z,17.27
2023-04-23T06:31:06.558Z,14.17
2023-04-23T06:33:36.968Z,14.07
2023-04-23T06:36:06.010Z,13.70
2023-04-23T06:38:34.658Z,19.97
2023-04-23T06:41:03.268Z,22.17
2023-04-23T06:43:31.823Z,14.43
2023-04-23T06:46:00.368Z,14.17
2023-04-23T06:48:32.525Z,15.40
2023-04-23T06:51:01.028Z,13.20
2023-04-23T06:53:29.514Z,13.30
2023-04-23T06:55:58.250Z,12.87
2023-04-23T06:58:31.432Z,14.53
2023-04-23T07:01:01.611Z,15.13
2023-04-23T07:03:31.916Z,12.30
2023-04-23T07:06:00.537Z,14.37
2023-04-23T07:08:29.014Z,14.47
2023-04-23T07:10:57.522Z,12.60
2023-04-23T07:13:26.054Z,13.73
2023-04-23T07:15:54.550Z,10.17
2023-04-23T07:18:23.084Z,10.83
2023-04-23T07:20:53.233Z,12.77
2023-04-23T07:23:21.817Z,11.13
2023-04-23T07:25:50.284Z,9.47
2023-04-23T07:28:18.919Z,9.77
2023-04-23T07:30:47.466Z,10.70
2023-04-23T07:33:16.360Z,8.80
2023-04-23T07:35:44.961Z,12.07
2023-04-23T07:38:14.890Z,6.47
2023-04-23T07:40:43.453Z,7.40
2023-04-23T07:43:12.922Z,8.37
2023-04-23T07:45:41.628Z,7.60
2023-04-23T07:48:10.156Z,7.23
2023-04-23T07:50:38.786Z,7.13
2023-04-23T07:53:07.348Z,8.57
2023-04-23T07:55:37.930Z,6.77
2023-04-23T07:58:06.453Z,6.80
2023-04-23T08:00:35.086Z,7.53
2023-04-23T08:03:03.792Z,6.10
2023-04-23T08:05:32.360Z,5.93
2023-04-23T08:08:00.979Z,6.90
2023-04-23T08:10:29.537Z,8.30
2023-04-23T08:12:59.417Z,4.30
2023-04-23T08:15:27.836Z,5.93
2023-04-23T08:17:56.748Z,7.93
2023-04-23T08:20:25.749Z,9.03
2023-04-23T08:22:55.939Z,7.20
2023-04-23T08:25:24.617Z,4.70
2023-04-23T08:27:53.744Z,9.07
2023-04-23T08:30:23.877Z,7.13
2023-04-23T08:32:55.442Z,9.87
2023-04-23T08:35:26.264Z,5.87
2023-04-23T08:37:54.868Z,6.70
2023-04-23T08:40:23.630Z,11.43
2023-04-23T08:42:55.492Z,7.70
2023-04-23T08:45:26.464Z,5.20
2023-04-23T08:48:02.130Z,5.93
2023-04-23T08:50:32.631Z,8.37
2023-04-23T08:53:01.744Z,9.00
2023-04-23T08:55:30.617Z,8.77
2023-04-23T08:58:01.608Z,8.63
2023-04-23T09:00:31.801Z,13.83
2023-04-23T09:03:01.198Z,5.30
2023-04-23T09:05:29.977Z,4.50
2023-04-23T09:08:00.507Z,6.13
2023-04-23T09:10:30.693Z,6.70
2023-04-23T09:12:59.346Z,5.30
2023-04-23T09:15:28.550Z,6.23
2023-04-23T09:17:59.786Z,8.40
2023-04-23T09:20:28.464Z,5.70
2023-04-23T09:22:57.161Z,5.73
2023-04-23T09:25:25.972Z,9.03
2023-04-23T09:27:55.163Z,5.43
2023-04-23T09:30:25.629Z,4.90
2023-04-23T09:32:54.610Z,6.37
2023-04-23T09:35:25.149Z,5.00
2023-04-23T09:37:54.157Z,4.13
2023-04-23T09:40:25.211Z,4.70
2023-04-23T09:42:55.299Z,5.87
2023-04-23T09:45:25.428Z,7.50
2023-04-23T09:47:55.714Z,4.00
2023-04-23T09:50:34.358Z,6.90
2023-04-23T09:53:03.414Z,7.50
2023-04-23T09:55:35.946Z,3.77
2023-04-23T09:58:05.752Z,6.20
2023-04-23T10:00:35.932Z,5.27
2023-04-23T10:03:05.047Z,5.60
2023-04-23T10:05:56.231Z,4.43
2023-04-23T10:08:29.581Z,6.27
2023-04-23T10:11:10.134Z,5.90
2023-04-23T10:13:47.622Z,8.23
2023-04-23T10:16:23.323Z,5.43
2023-04-23T10:18:57.224Z,5.80
2023-04-23T10:21:42.587Z,5.83
2023-04-23T10:24:22.618Z,4.97
2023-04-23T10:26:53.080Z,5.83
2023-04-23T10:29:28.088Z,7.57
2023-04-23T10:31:58.430Z,3.00
2023-04-23T10:34:27.630Z,3.77
2023-04-23T10:36:59.549Z,5.50
2023-04-23T10:39:35.288Z,7.00
2023-04-23T10:42:04.751Z,3.80
2023-04-23T10:47:14.382Z,6.03
2023-04-23T10:49:43.586Z,4.17
2023-04-23T10:52:21.180Z,4.37
2023-04-23T10:55:00.478Z,3.57
2023-04-23T10:57:29.137Z,9.47
2023-04-23T10:59:59.166Z,4.67
2023-04-23T11:02:28.273Z,5.67
2023-04-23T11:04:59.026Z,6.10
2023-04-23T11:07:33.658Z,5.87
2023-04-23T11:10:12.739Z,8.47
2023-04-23T11:12:42.676Z,5.10
2023-04-23T11:15:16.348Z,6.53
2023-04-23T11:18:04.357Z,6.87
2023-04-23T11:20:33.158Z,10.73
2023-04-23T11:23:03.683Z,5.80
2023-04-23T11:25:33.052Z,6.70
2023-04-23T11:28:01.697Z,7.50
2023-04-23T11:30:32.223Z,6.83
2023-04-23T11:33:02.451Z,5.73
2023-04-23T11:35:39.863Z,5.23
2023-04-23T11:38:11.795Z,3.23
2023-04-23T11:40:41.001Z,4.13
2023-04-23T11:43:09.854Z,7.97
2023-04-23T11:45:38.303Z,6.67
2023-04-23T11:48:08.495Z,6.40
2023-04-23T11:50:39.288Z,11.27
2023-04-23T11:53:09.086Z,7.23
2023-04-23T11:55:44.454Z,4.30
2023-04-23T11:58:12.896Z,4.90
2023-04-23T12:00:42.043Z,5.97
2023-04-23T12:03:10.618Z,4.87
2023-04-23T12:05:43.887Z,6.57
2023-04-23T12:08:13.529Z,3.53
2023-04-23T12:10:49.307Z,4.30
2023-04-23T12:13:18.750Z,8.47
2023-04-23T12:15:48.764Z,3.20
2023-04-23T12:18:17.453Z,2.37
2023-04-23T12:20:46.276Z,4.53
2023-04-23T12:23:14.722Z,4.97
2023-04-23T12:25:43.177Z,7.60
2023-04-23T12:28:13.477Z,7.63
2023-04-23T12:30:46.195Z,4.17
2023-04-23T12:33:15.214Z,4.13
2023-04-23T12:35:45.187Z,2.70
2023-04-23T12:38:24.962Z,8.43
2023-04-23T12:40:53.494Z,3.90
2023-04-23T12:43:23.509Z,2.63
2023-04-23T12:45:52.411Z,5.07
2023-04-23T12:48:20.906Z,5.87
2023-04-23T12:50:50.296Z,3.60
2023-04-23T12:53:20.222Z,2.97
2023-04-23T12:55:50.376Z,2.93
2023-04-23T12:58:18.884Z,3.87
2023-04-23T13:00:48.985Z,3.50
2023-04-23T13:03:19.550Z,4.17
2023-04-23T13:05:48.328Z,2.80
2023-04-23T13:08:16.870Z,2.73
2023-04-23T13:10:46.285Z,3.90
2023-04-23T13:13:14.786Z,4.03
2023-04-23T13:15:44.074Z,3.57
2023-04-23T13:18:13.889Z,5.90
2023-04-23T13:20:43.399Z,6.83
2023-04-23T13:23:12.505Z,3.37
2023-04-23T13:25:41.319Z,4.87
2023-04-23T13:28:09.734Z,4.30
2023-04-23T13:30:38.423Z,4.27
2023-04-23T13:33:06.974Z,2.83
2023-04-23T13:35:38.123Z,1.83
2023-04-23T13:38:06.798Z,2.80
2023-04-23T13:40:35.900Z,1.90
2023-04-23T13:43:04.657Z,1.77
2023-04-23T13:45:33.769Z,2.50
2023-04-23T13:48:02.803Z,3.27
2023-04-23T13:50:31.267Z,1.70
2023-04-23T13:53:01.334Z,2.83
2023-04-23T13:55:30.011Z,2.13
2023-04-23T13:57:59.098Z,3.00
2023-04-23T14:00:30.741Z,3.13
2023-04-23T14:02:59.911Z,1.70
2023-04-23T14:05:29.768Z,3.70
2023-04-23T14:07:58.423Z,2.97
2023-04-23T14:10:28.743Z,5.73
2023-04-23T14:12:57.535Z,3.30
2023-04-23T14:15:26.054Z,5.90
2023-04-23T14:17:54.584Z,3.07
2023-04-23T14:20:23.223Z,3.47
2023-04-23T14:22:56.871Z,4.90
2023-04-23T14:25:36.377Z,2.57
2023-04-23T14:28:25.731Z,2.80
2023-04-23T14:30:57.097Z,3.27
2023-04-23T14:33:25.844Z,3.53
2023-04-23T14:35:55.290Z,2.37
2023-04-23T14:38:23.805Z,5.07
2023-04-23T14:40:53.997Z,3.17
2023-04-23T14:43:25.319Z,3.83
2023-04-23T14:45:54.123Z,3.67
2023-04-23T14:48:22.657Z,4.37
2023-04-23T14:50:51.358Z,4.80
2023-04-23T14:53:20.110Z,3.40
2023-04-23T14:55:48.822Z,2.77
2023-04-23T14:58:18.801Z,3.63
2023-04-23T15:00:47.306Z,4.60
2023-04-23T15:03:16.153Z,2.77
2023-04-23T15:05:44.782Z,2.83
2023-04-23T15:08:13.680Z,3.53
2023-04-23T15:10:42.246Z,2.87
2023-04-23T15:13:31.232Z,2.43
2023-04-23T15:16:06.007Z,2.87
2023-04-23T15:18:35.492Z,2.77
2023-04-23T15:21:04.376Z,2.50
2023-04-23T15:23:33.365Z,2.70
2023-04-23T15:26:01.963Z,3.93
2023-04-23T15:28:31.023Z,2.57
2023-04-23T15:31:00.932Z,3.63
2023-04-23T15:33:31.411Z,2.33
2023-04-23T15:36:00.139Z,2.53
2023-04-23T15:38:29.297Z,3.43
2023-04-23T15:40:58.316Z,2.30
2023-04-23T15:43:28.679Z,3.37
2023-04-23T15:45:58.981Z,2.90
2023-04-23T15:48:31.241Z,2.07
2023-04-23T15:50:59.895Z,2.87
2023-04-23T15:53:29.538Z,4.13
2023-04-23T15:55:58.151Z,3.80
2023-04-23T15:58:31.185Z,3.57
2023-04-23T16:01:00.245Z,3.67
2023-04-23T16:03:30.317Z,3.30
2023-04-23T16:05:59.218Z,3.03
2023-04-23T16:08:27.918Z,4.60
2023-04-23T16:10:58.348Z,3.23
2023-04-23T16:13:29.285Z,2.83
2023-04-23T16:15:57.960Z,2.97
2023-04-23T16:18:26.457Z,3.10
2023-04-23T16:20:56.570Z,2.90
2023-04-23T16:23:25.116Z,2.93
2023-04-23T16:25:53.667Z,2.80
2023-04-23T16:28:22.208Z,3.23
2023-04-23T16:30:50.681Z,2.73
2023-04-23T16:33:19.132Z,3.93
2023-04-23T16:35:47.564Z,3.40
2023-04-23T16:38:17.434Z,3.07
2023-04-23T16:40:47.460Z,3.07
2023-04-23T16:43:16.407Z,3.97
2023-04-23T16:45:44.866Z,4.17
2023-04-23T16:48:16.803Z,7.77
2023-04-23T16:50:45.336Z,3.33
2023-04-23T16:53:13.875Z,4.47
2023-04-23T16:55:44.187Z,3.37
2023-04-23T16:58:12.805Z,5.67
2023-04-23T17:00:41.492Z,3.17
2023-04-23T17:03:10.249Z,3.77
2023-04-23T17:05:40.997Z,3.17
2023-04-23T17:08:09.681Z,3.90
2023-04-23T17:10:38.201Z,4.60
2023-04-23T17:13:08.154Z,2.83
2023-04-23T17:15:36.898Z,4.80
2023-04-23T17:18:05.626Z,3.97
2023-04-23T17:20:35.732Z,3.00
2023-04-23T17:23:04.508Z,2.97
2023-04-23T17:25:33.258Z,2.60
2023-04-23T17:28:02.132Z,4.03
2023-04-23T17:30:32.140Z,3.37
2023-04-23T17:33:01.291Z,6.07
2023-04-23T17:35:29.875Z,2.87
2023-04-23T17:37:58.504Z,5.37
2023-04-23T17:40:28.779Z,3.30
2023-04-23T17:42:57.225Z,3.77
2023-04-23T17:45:25.878Z,5.13
2023-04-23T17:47:55.986Z,3.20
2023-04-23T17:50:25.224Z,4.50
2023-04-23T17:52:53.808Z,2.97
2023-04-23T17:55:23.440Z,5.10
2023-04-23T17:57:52.435Z,3.87
2023-04-23T18:00:21.479Z,5.50
2023-04-23T18:02:50.365Z,5.10
2023-04-23T18:05:20.548Z,6.70
2023-04-23T18:07:48.983Z,4.43
2023-04-23T18:10:17.889Z,4.10
2023-04-23T18:12:46.420Z,4.43
2023-04-23T18:15:16.338Z,3.17
2023-04-23T18:17:45.505Z,4.27
2023-04-23T18:20:16.956Z,3.53
2023-04-23T18:22:47.243Z,6.43
2023-04-23T18:25:17.068Z,47.20
2023-04-23T18:27:45.943Z,129.90
2023-04-23T18:30:15.672Z,25.30
2023-04-23T18:32:49.374Z,6.30
2023-04-23T18:35:18.522Z,4.60
2023-04-23T18:37:55.463Z,3.23
2023-04-23T18:40:24.317Z,4.13
2023-04-23T18:42:53.127Z,5.47
2023-04-23T18:45:22.598Z,3.37
2023-04-23T18:47:53.572Z,161.20
2023-04-23T18:50:37.037Z,138.17
2023-04-23T18:53:07.644Z,18.27
2023-04-23T18:55:37.035Z,252.70
2023-04-23T18:58:05.666Z,352.37
2023-04-23T19:00:34.572Z,49.63
2023-04-23T19:03:09.375Z,9.53
2023-04-23T19:05:48.819Z,5.13
2023-04-23T19:08:18.963Z,3.03
2023-04-23T19:10:47.586Z,294.67
2023-04-23T19:13:16.225Z,288.37
2023-04-23T19:15:44.871Z,13.73
2023-04-23T19:18:13.891Z,26.53
2023-04-23T19:20:42.818Z,226.50
2023-04-23T19:23:11.855Z,391.93
2023-04-23T19:25:42.057Z,125.90
2023-04-23T19:28:10.716Z,9.73
2023-04-23T19:30:39.429Z,4.97
2023-04-23T19:33:08.163Z,4.40
2023-04-23T19:35:39.926Z,4.80
2023-04-23T19:38:09.595Z,5.03
2023-04-23T19:40:38.202Z,4.93
2023-04-23T19:43:09.496Z,6.40
2023-04-23T19:45:39.739Z,4.03
2023-04-23T19:48:08.499Z,5.53
2023-04-23T19:50:37.140Z,5.43
2023-04-23T19:53:06.854Z,3.70
2023-04-23T19:55:35.632Z,7.03
2023-04-23T19:58:06.720Z,7.33
2023-04-23T20:00:40.874Z,10.47
2023-04-23T20:03:10.896Z,6.00
2023-04-23T20:05:39.628Z,8.07
2023-04-23T20:08:15.550Z,8.43
2023-04-23T20:10:44.979Z,8.63
2023-04-23T20:13:13.795Z,9.10
2023-04-23T20:15:43.700Z,12.27
2023-04-23T20:18:12.596Z,73.27
2023-04-23T20:20:43.010Z,191.57
2023-04-23T20:23:11.511Z,92.83
2023-04-23T20:25:40.203Z,62.60
2023-04-23T20:28:09.606Z,59.50
2023-04-23T20:30:38.544Z,71.43
2023-04-23T20:33:09.816Z,49.97
2023-04-23T20:35:42.137Z,40.27
2023-04-23T20:38:10.637Z,27.37
2023-04-23T20:40:40.214Z,15.97
2023-04-23T20:43:08.866Z,15.57
2023-04-23T20:45:37.406Z,17.77
2023-04-23T20:48:08.445Z,37.63
2023-04-23T20:50:37.233Z,34.67
2023-04-23T20:53:05.832Z,23.77
2023-04-23T20:55:34.301Z,23.20
2023-04-23T20:58:02.804Z,20.43
2023-04-23T21:00:31.414Z,20.93
2023-04-23T21:03:00.535Z,19.47
2023-04-23T21:05:33.414Z,16.10
2023-04-23T21:08:02.191Z,68.33
2023-04-23T21:10:31.091Z,208.30
2023-04-23T21:13:00.011Z,262.70
2023-04-23T21:15:29.931Z,117.40
2023-04-23T21:17:58.510Z,108.77
2023-04-23T21:20:27.121Z,163.23
2023-04-23T21:22:57.288Z,34.70
2023-04-23T21:25:27.009Z,15.80
2023-04-23T21:27:56.632Z,16.73
2023-04-23T21:30:32.042Z,13.07
2023-04-23T21:33:00.900Z,12.53
2023-04-23T21:35:29.542Z,10.20
2023-04-23T21:38:01.210Z,12.27
2023-04-23T21:40:29.992Z,14.63
2023-04-23T21:42:58.987Z,12.20
2023-04-23T21:45:29.123Z,13.07
2023-04-23T21:47:58.579Z,11.20
2023-04-23T21:50:28.971Z,11.60
2023-04-23T21:53:00.718Z,12.30
2023-04-23T21:55:31.145Z,14.17
2023-04-23T21:58:15.872Z,15.23
2023-04-23T22:00:46.348Z,15.77
2023-04-23T22:03:19.385Z,16.13
2023-04-23T22:06:04.799Z,14.67
2023-04-23T22:08:38.170Z,16.30
2023-04-23T22:11:07.582Z,13.90
2023-04-23T22:13:37.313Z,13.67
2023-04-23T22:16:10.852Z,19.37
2023-04-23T22:18:45.415Z,14.47
2023-04-23T22:21:14.723Z,13.03
2023-04-23T22:23:44.875Z,15.07
2023-04-23T22:26:13.563Z,13.90
2023-04-23T22:28:43.994Z,13.53
2023-04-23T22:31:12.602Z,12.60
2023-04-23T22:33:41.472Z,13.33
2023-04-23T22:36:10.240Z,13.97
2023-04-23T22:38:38.806Z,13.90
2023-04-23T22:41:08.881Z,14.97
2023-04-23T22:43:37.436Z,12.93
2023-04-23T22:46:06.198Z,13.67
2023-04-23T22:48:34.831Z,15.50
2023-04-23T22:51:05.108Z,16.00
2023-04-23T22:53:34.253Z,14.07
2023-04-23T22:56:03.191Z,14.23
2023-04-23T22:58:33.189Z,14.93
2023-04-23T23:01:01.989Z,16.03
2023-04-23T23:03:30.796Z,12.33
2023-04-23T23:05:59.547Z,17.93
2023-04-23T23:08:28.293Z,13.97
2023-04-23T23:10:57.268Z,17.23
2023-04-23T23:13:26.020Z,14.50
2023-04-23T23:16:00.592Z,16.37
2023-04-23T23:18:29.238Z,12.93
2023-04-23T23:20:57.802Z,14.33
2023-04-23T23:23:26.619Z,18.60
2023-04-23T23:25:55.217Z,15.13
2023-04-23T23:28:24.143Z,16.13
2023-04-23T23:30:53.989Z,12.60
2023-04-23T23:33:24.266Z,15.87
2023-04-23T23:35:53.102Z,13.43
2023-04-23T23:38:21.574Z,14.67
2023-04-23T23:40:50.121Z,16.17
2023-04-23T23:43:18.577Z,14.53
2023-04-23T23:45:47.649Z,13.97
2023-04-23T23:48:16.255Z,15.10
2023-04-23T23:50:46.627Z,13.57
2023-04-23T23:53:15.119Z,12.87
2023-04-23T23:55:43.604Z,11.97
2023-04-23T23:58:12.004Z,14.67
